Time,TemperatureF,DewpointF,PressureIn,WindDirection,WindDirectionDegrees,WindSpeedMPH,WindSpeedGustMPH,Humidity,HourlyPrecipIn,Conditions,Clouds,dailyrainin,SoftwareType,DateUTC
2013-01-02 00:00:00,11.3,3.1,30.08,WSW,239,2.7,4.0,57,0.00,NA,NA,0.00,meteo_script,2013-01-02 06:00:00,
2013-01-02 00:30:00,11.9,3.7,30.06,WSW,243,3.4,5.0,57,0.00,NA,NA,0.00,meteo_script,2013-01-02 06:30:00,
2013-01-02 01:00:00,12.4,4.4,30.07,SW,235,2.2,3.0,58,0.00,NA,NA,0.00,meteo_script,2013-01-02 07:00:00,
2013-01-02 01:30:00,12.9,5.1,30.07,SSW,209,2.0,3.0,59,0.00,NA,NA,0.00,meteo_script,2013-01-02 07:30:00,
2013-01-02 02:00:00,13.2,5.6,30.08,SSW,213,2.8,5.0,60,0.00,NA,NA,0.00,meteo_script,2013-01-02 08:00:00,
2013-01-02 02:30:00,13.2,5.8,30.09,SSW,210,1.5,3.0,61,0.00,NA,NA,0.00,meteo_script,2013-01-02 08:30:00,
2013-01-02 03:00:00,13.5,6.1,30.08,WSW,238,2.2,4.0,61,0.00,NA,NA,0.00,meteo_script,2013-01-02 09:00:00,
2013-01-02 03:30:00,14.0,6.8,30.07,SW,223,1.7,3.0,62,0.00,NA,NA,0.00,meteo_script,2013-01-02 09:30:00,
2013-01-02 04:00:00,14.2,7.3,30.07,SW,216,1.3,2.0,63,0.00,NA,NA,0.00,meteo_script,2013-01-02 10:00:00,
2013-01-02 04:30:00,14.6,7.7,30.06,SW,216,0.5,1.0,63,0.00,NA,NA,0.00,meteo_script,2013-01-02 10:30:00,
2013-01-02 05:00:00,14.7,7.9,30.06,SSW,209,0.9,2.0,64,0.00,NA,NA,0.00,meteo_script,2013-01-02 11:00:00,
2013-01-02 05:30:00,15.0,8.4,30.05,SSW,208,1.4,2.0,64,0.00,NA,NA,0.00,meteo_script,2013-01-02 11:30:00,
2013-01-02 06:00:00,15.2,8.7,30.06,SSW,209,2.6,4.0,65,0.00,NA,NA,0.00,meteo_script,2013-01-02 12:00:00,
2013-01-02 06:30:00,14.8,8.0,30.06,SSW,211,1.4,3.0,64,0.00,NA,NA,0.00,meteo_script,2013-01-02 12:30:00,
2013-01-02 07:00:00,14.2,7.6,30.06,South,191,2.3,4.0,64,0.00,NA,NA,0.00,meteo_script,2013-01-02 13:00:00,
2013-01-02 07:30:00,13.3,6.8,30.06,South,180,2.8,5.0,65,0.00,NA,NA,0.00,meteo_script,2013-01-02 13:30:00,
2013-01-02 08:00:00,12.5,5.7,30.05,SSW,198,2.6,4.0,63,0.00,NA,NA,0.00,meteo_script,2013-01-02 14:00:00,
2013-01-02 08:30:00,12.9,5.3,30.06,SW,215,2.7,4.0,60,0.00,NA,NA,0.00,meteo_script,2013-01-02 14:30:00,
2013-01-02 09:00:00,13.6,5.0,30.05,SSW,198,2.4,4.0,56,0.00,NA,NA,0.00,meteo_script,2013-01-02 15:00:00,
2013-01-02 09:30:00,14.7,5.1,30.06,SSW,205,3.7,7.0,52,0.00,NA,NA,0.00,meteo_script,2013-01-02 15:30:00,
2013-01-02 10:00:00,16.0,6.2,30.05,South,177,3.8,6.0,52,0.00,NA,NA,0.00,meteo_script,2013-01-02 16:00:00,
2013-01-02 10:30:00,17.5,7.4,30.05,SSW,212,4.2,7.0,51,0.00,NA,NA,0.00,meteo_script,2013-01-02 16:30:00,
2013-01-02 11:00:00,18.8,8.5,30.02,SSW,209,4.8,8.0,51,0.00,NA,NA,0.00,meteo_script,2013-01-02 17:00:00,
2013-01-02 11:30:00,19.8,9.5,30.02,SSW,204,6.7,11.0,51,0.00,NA,NA,0.00,meteo_script,2013-01-02 17:30:00,
2013-01-02 12:00:00,20.9,10.4,30.01,SSW,196,3.3,5.0,51,0.00,NA,NA,0.00,meteo_script,2013-01-02 18:00:00,
2013-01-02 12:30:00,22.3,11.4,29.99,South,185,4.2,7.0,50,0.00,NA,NA,0.00,meteo_script,2013-01-02 18:30:00,
2013-01-02 13:00:00,22.9,11.9,29.99,SSW,198,2.8,4.0,50,0.00,NA,NA,0.00,meteo_script,2013-01-02 19:00:00,
2013-01-02 13:30:00,23.6,12.2,29.98,South,189,3.6,7.0,49,0.00,NA,NA,0.00,meteo_script,2013-01-02 19:30:00,
2013-01-02 14:00:00,24.4,13.3,29.97,South,181,3.0,7.0,50,0.02,NA,NA,0.01,meteo_script,2013-01-02 20:00:00,
2013-01-02 14:30:00,24.1,13.3,29.97,South,183,2.1,5.0,51,0.00,NA,NA,0.01,meteo_script,2013-01-02 20:30:00,
2013-01-02 15:00:00,23.6,13.7,29.98,South,190,3.0,5.0,54,0.00,NA,NA,0.01,meteo_script,2013-01-02 21:00:00,
2013-01-02 15:30:00,23.5,14.2,29.98,SSW,198,2.7,5.0,56,0.00,NA,NA,0.01,meteo_script,2013-01-02 21:30:00,
2013-01-02 16:00:00,22.7,13.7,29.98,SSW,202,1.9,4.0,57,0.00,NA,NA,0.01,meteo_script,2013-01-02 22:00:00,
2013-01-02 16:30:00,21.3,12.9,29.98,SSW,204,1.9,3.0,58,0.00,NA,NA,0.01,meteo_script,2013-01-02 22:30:00,
2013-01-02 17:00:00,20.3,12.7,29.99,SSW,206,2.9,5.0,61,0.00,NA,NA,0.01,meteo_script,2013-01-02 23:00:00,
2013-01-02 17:30:00,20.2,12.9,29.99,SSW,204,3.7,7.0,63,0.00,NA,NA,0.01,meteo_script,2013-01-02 23:30:00,
2013-01-02 18:00:00,20.5,13.5,29.99,SSW,211,1.1,3.0,64,0.00,NA,NA,0.01,meteo_script,2013-01-03 00:00:00,
2013-01-02 18:30:00,20.8,14.0,30.00,SSW,203,2.5,4.0,65,0.00,NA,NA,0.01,meteo_script,2013-01-03 00:30:00,
2013-01-02 19:00:00,20.8,14.0,29.99,SW,215,2.3,3.0,65,0.00,NA,NA,0.01,meteo_script,2013-01-03 01:00:00,
2013-01-02 19:30:00,21.1,14.3,30.00,SW,221,0.9,3.0,65,0.00,NA,NA,0.01,meteo_script,2013-01-03 01:30:00,
2013-01-02 20:00:00,21.2,14.5,30.00,SW,219,2.1,4.0,65,0.00,NA,NA,0.01,meteo_script,2013-01-03 02:00:00,
2013-01-02 20:30:00,21.1,14.5,29.98,SSW,213,3.3,7.0,66,0.00,NA,NA,0.01,meteo_script,2013-01-03 02:30:00,
2013-01-02 21:00:00,21.3,15.0,29.99,SSW,213,1.8,4.0,67,0.00,NA,NA,0.01,meteo_script,2013-01-03 03:00:00,
2013-01-02 21:30:00,21.8,15.6,29.99,SW,229,3.4,5.0,68,0.00,NA,NA,0.01,meteo_script,2013-01-03 03:30:00,
2013-01-02 22:00:00,22.0,15.8,29.98,WSW,248,6.2,9.0,68,0.00,NA,NA,0.01,meteo_script,2013-01-03 04:00:00,
2013-01-02 22:30:00,22.2,16.2,29.99,WSW,250,2.3,5.0,68,0.00,NA,NA,0.01,meteo_script,2013-01-03 04:30:00,
2013-01-02 23:00:00,21.9,15.9,29.99,West,259,5.5,10.0,69,0.00,NA,NA,0.01,meteo_script,2013-01-03 05:00:00,
2013-01-02 23:30:00,21.5,15.8,29.99,West,263,2.3,5.0,70,0.00,NA,NA,0.01,meteo_script,2013-01-03 05:30:00,